createdAt,value
2022-12-18T00:01:34.398Z,75.97
2022-12-18T00:04:05.164Z,78.00
2022-12-18T00:06:33.748Z,79.18
2022-12-18T00:09:03.324Z,78.35
2022-12-18T00:11:32.037Z,75.10
2022-12-18T00:14:00.880Z,81.55
2022-12-18T00:16:31.062Z,84.13
2022-12-18T00:19:01.277Z,79.68
2022-12-18T00:21:30.832Z,90.25
2022-12-18T00:23:59.515Z,97.63
2022-12-18T00:26:33.604Z,101.53
2022-12-18T00:29:05.693Z,98.40
2022-12-18T00:31:34.380Z,96.70
2022-12-18T00:34:02.297Z,103.70
2022-12-18T00:36:34.168Z,105.82
2022-12-18T00:39:04.966Z,77.50
2022-12-18T00:41:51.311Z,99.10
2022-12-18T00:44:19.709Z,100.60
2022-12-18T00:46:49.032Z,106.80
2022-12-18T00:49:19.751Z,94.55
2022-12-18T00:51:47.989Z,90.68
2022-12-18T00:54:16.524Z,87.32
2022-12-18T00:56:50.687Z,85.22
2022-12-18T00:59:19.307Z,92.38
2022-12-18T01:01:47.532Z,83.65
2022-12-18T01:04:15.824Z,76.72
2022-12-18T01:06:42.973Z,83.03
2022-12-18T01:09:10.121Z,75.88
2022-12-18T01:11:37.437Z,72.88
2022-12-18T01:14:04.799Z,75.32
2022-12-18T01:16:32.062Z,73.43
2022-12-18T01:18:59.572Z,72.63
2022-12-18T01:21:26.808Z,78.72
2022-12-18T01:23:56.711Z,75.03
2022-12-18T01:26:26.393Z,86.90
2022-12-18T01:28:55.430Z,82.72
2022-12-18T01:31:24.417Z,78.55
2022-12-18T01:33:53.330Z,87.45
2022-12-18T01:36:33.891Z,84.97
2022-12-18T01:39:07.528Z,80.93
2022-12-18T01:41:54.508Z,79.68
2022-12-18T01:44:58.842Z,78.35
2022-12-18T01:47:34.782Z,87.38
2022-12-18T01:50:17.717Z,80.38
2022-12-18T01:55:23.508Z,81.25
2022-12-18T01:57:55.962Z,81.13
2022-12-18T02:00:25.556Z,81.40
2022-12-18T02:02:53.971Z,78.32
2022-12-18T02:05:50.659Z,78.03
2022-12-18T02:09:19.651Z,75.22
2022-12-18T02:12:07.913Z,77.15
2022-12-18T02:14:55.484Z,79.30
2022-12-18T02:17:34.419Z,81.03
2022-12-18T02:20:37.303Z,87.97
2022-12-18T02:23:43.308Z,79.85
2022-12-18T02:26:38.979Z,88.00
2022-12-18T02:29:28.908Z,82.10
2022-12-18T02:32:00.922Z,86.70
2022-12-18T02:34:33.808Z,87.18
2022-12-18T02:37:07.330Z,78.90
2022-12-18T02:39:37.464Z,79.95
2022-12-18T02:42:08.800Z,84.85
2022-12-18T02:44:45.410Z,70.88
2022-12-18T02:47:15.757Z,74.60
2022-12-18T02:49:59.689Z,77.05
2022-12-18T02:52:27.066Z,74.35
2022-12-18T02:55:29.329Z,78.97
2022-12-18T02:58:04.238Z,78.80
2022-12-18T03:00:41.758Z,84.72
2022-12-18T03:03:33.614Z,81.88
2022-12-18T03:06:41.113Z,75.65
2022-12-18T03:09:18.602Z,73.25
2022-12-18T03:12:14.286Z,81.32
2022-12-18T03:14:46.101Z,74.32
2022-12-18T03:17:19.665Z,82.57
2022-12-18T03:19:49.389Z,78.80
2022-12-18T03:22:17.869Z,74.57
2022-12-18T03:24:49.368Z,79.53
2022-12-18T03:27:23.313Z,77.60
2022-12-18T03:30:08.180Z,79.60
2022-12-18T03:33:06.855Z,88.22
2022-12-18T03:35:40.780Z,91.40
2022-12-18T03:38:09.336Z,84.45
2022-12-18T03:40:57.099Z,89.50
2022-12-18T03:44:14.818Z,80.78
2022-12-18T03:47:03.151Z,73.60
2022-12-18T03:49:57.422Z,77.93
2022-12-18T03:52:34.277Z,79.82
2022-12-18T03:55:04.667Z,71.65
2022-12-18T03:57:33.885Z,76.25
2022-12-18T04:00:10.677Z,74.03
2022-12-18T04:02:45.666Z,81.72
2022-12-18T04:05:15.996Z,76.63
2022-12-18T04:07:45.902Z,82.82
2022-12-18T04:10:15.386Z,77.68
2022-12-18T04:12:43.051Z,74.82
2022-12-18T04:15:12.725Z,71.35
2022-12-18T04:17:50.539Z,74.20
2022-12-18T04:20:18.648Z,74.45
2022-12-18T04:22:46.491Z,75.97
2022-12-18T04:25:14.379Z,73.75
2022-12-18T04:27:41.587Z,72.00
2022-12-18T04:30:09.604Z,73.88
2022-12-18T04:32:37.166Z,75.78
2022-12-18T04:35:07.411Z,69.93
2022-12-18T04:37:34.610Z,75.18
2022-12-18T04:40:01.806Z,70.97
2022-12-18T04:42:28.983Z,72.35
2022-12-18T04:44:56.188Z,72.97
2022-12-18T04:47:23.339Z,236.82
2022-12-18T04:49:50.523Z,73.53
2022-12-18T04:52:17.684Z,71.28
2022-12-18T04:54:44.878Z,72.35
2022-12-18T04:57:12.081Z,73.00
2022-12-18T04:59:39.313Z,74.00
2022-12-18T05:02:07.005Z,76.43
2022-12-18T05:04:34.258Z,76.78
2022-12-18T05:07:01.483Z,67.68
2022-12-18T05:09:28.705Z,68.05
2022-12-18T05:11:55.917Z,68.78
2022-12-18T05:14:23.072Z,72.78
2022-12-18T05:16:50.363Z,64.32
2022-12-18T05:19:17.542Z,73.75
2022-12-18T05:21:44.765Z,69.30
2022-12-18T05:24:13.133Z,76.60
2022-12-18T05:26:40.457Z,72.07
2022-12-18T05:29:08.773Z,71.85
2022-12-18T05:31:39.710Z,64.65
2022-12-18T05:34:07.243Z,70.00
2022-12-18T05:36:34.410Z,68.93
2022-12-18T05:39:01.596Z,63.97
2022-12-18T05:41:29.618Z,70.82
2022-12-18T05:43:56.833Z,64.63
2022-12-18T05:46:25.185Z,65.50
2022-12-18T05:48:52.796Z,67.18
2022-12-18T05:51:22.864Z,66.00
2022-12-18T05:53:50.107Z,61.00
2022-12-18T05:56:22.480Z,66.22
2022-12-18T05:58:53.956Z,72.78
2022-12-18T06:01:25.890Z,66.53
2022-12-18T06:03:53.548Z,65.22
2022-12-18T06:06:24.927Z,66.32
2022-12-18T06:08:53.352Z,61.47
2022-12-18T06:11:24.557Z,66.30
2022-12-18T06:13:58.742Z,67.50
2022-12-18T06:16:28.804Z,67.95
2022-12-18T06:19:00.998Z,64.07
2022-12-18T06:23:57.060Z,66.13
2022-12-18T06:26:28.332Z,65.93
2022-12-18T06:28:56.142Z,68.40
2022-12-18T06:31:23.386Z,67.10
2022-12-18T06:33:50.785Z,65.85
2022-12-18T06:36:18.564Z,69.60
2022-12-18T06:38:45.823Z,63.47
2022-12-18T06:41:20.274Z,68.15
2022-12-18T06:43:47.889Z,68.55
2022-12-18T06:46:15.706Z,75.10
2022-12-18T06:48:43.218Z,71.07
2022-12-18T06:51:10.344Z,72.22
2022-12-18T06:53:37.948Z,71.07
2022-12-18T06:56:10.739Z,78.53
2022-12-18T06:58:39.924Z,83.65
2022-12-18T07:01:11.169Z,82.60
2022-12-18T07:03:41.499Z,87.85
2022-12-18T07:06:18.288Z,81.95
2022-12-18T07:08:47.456Z,83.55
2022-12-18T07:11:15.626Z,82.93
2022-12-18T07:13:43.950Z,75.45
2022-12-18T07:16:20.804Z,69.55
2022-12-18T07:18:51.595Z,67.15
2022-12-18T07:21:22.904Z,71.10
2022-12-18T07:23:50.317Z,75.05
2022-12-18T07:26:21.016Z,77.18
2022-12-18T07:28:49.386Z,76.05
2022-12-18T07:31:22.254Z,78.15
2022-12-18T07:33:52.220Z,64.03
2022-12-18T07:36:23.615Z,64.47
2022-12-18T07:38:52.522Z,67.30
2022-12-18T07:41:20.418Z,65.13
2022-12-18T07:43:48.099Z,67.55
2022-12-18T07:46:17.338Z,65.10
2022-12-18T07:48:49.389Z,69.20
2022-12-18T07:51:18.971Z,50.50
2022-12-18T07:53:46.775Z,75.85
2022-12-18T07:56:27.252Z,67.35
2022-12-18T07:58:56.743Z,73.65
2022-12-18T08:01:24.371Z,69.50
2022-12-18T08:03:52.501Z,64.03
2022-12-18T08:06:22.590Z,64.88
2022-12-18T08:08:56.728Z,71.07
2022-12-18T08:11:26.841Z,71.45
2022-12-18T08:13:54.656Z,73.93
2022-12-18T08:16:23.254Z,74.93
2022-12-18T08:18:52.539Z,72.95
2022-12-18T08:21:24.801Z,77.43
2022-12-18T08:23:54.473Z,70.47
2022-12-18T08:26:23.009Z,70.93
2022-12-18T08:28:51.922Z,75.82
2022-12-18T08:31:20.016Z,77.00
2022-12-18T08:33:53.184Z,76.50
2022-12-18T08:38:48.471Z,73.47
2022-12-18T08:41:18.249Z,71.13
2022-12-18T08:44:04.334Z,72.80
2022-12-18T08:46:41.554Z,65.15
2022-12-18T08:49:11.924Z,54.72
2022-12-18T08:51:40.036Z,58.30
2022-12-18T08:54:08.265Z,53.03
2022-12-18T08:56:35.527Z,46.90
2022-12-18T08:59:02.785Z,45.15
2022-12-18T09:01:30.076Z,43.97
2022-12-18T09:03:57.885Z,41.47
2022-12-18T09:06:25.103Z,43.78
2022-12-18T09:08:52.320Z,41.72
2022-12-18T09:11:26.363Z,41.67
2022-12-18T09:13:55.246Z,40.55
2022-12-18T09:16:30.307Z,36.83
2022-12-18T09:19:00.712Z,37.03
2022-12-18T09:21:34.272Z,37.40
2022-12-18T09:24:08.619Z,37.25
2022-12-18T09:26:36.742Z,39.67
2022-12-18T09:29:04.990Z,38.47
2022-12-18T09:31:32.188Z,41.05
2022-12-18T09:33:59.332Z,39.80
2022-12-18T09:36:26.553Z,42.90
2022-12-18T09:38:54.217Z,39.78
2022-12-18T09:41:45.449Z,41.78
2022-12-18T09:44:25.988Z,41.05
2022-12-18T09:47:14.048Z,41.35
2022-12-18T09:49:52.648Z,44.15
2022-12-18T09:52:35.121Z,52.10
2022-12-18T09:55:23.186Z,50.67
2022-12-18T09:58:02.270Z,49.33
2022-12-18T10:00:29.593Z,59.60
2022-12-18T10:03:12.567Z,58.65
2022-12-18T10:06:06.871Z,51.20
2022-12-18T10:09:04.894Z,53.35
2022-12-18T10:11:53.327Z,47.25
2022-12-18T10:14:34.045Z,53.60
2022-12-18T10:17:25.719Z,51.10
2022-12-18T10:20:20.286Z,52.10
2022-12-18T10:23:16.532Z,57.53
2022-12-18T10:25:53.730Z,51.20
2022-12-18T10:28:22.778Z,53.35
2022-12-18T10:30:50.111Z,52.15
2022-12-18T10:33:22.508Z,51.15
2022-12-18T10:35:52.477Z,50.70
2022-12-18T10:38:20.161Z,56.13
2022-12-18T10:41:26.785Z,54.40
2022-12-18T10:44:18.723Z,53.83
2022-12-18T10:46:50.323Z,52.40
2022-12-18T10:49:29.820Z,54.75
2022-12-18T10:52:19.751Z,49.75
2022-12-18T10:54:59.508Z,50.42
2022-12-18T10:57:41.338Z,53.83
2022-12-18T11:00:29.583Z,50.90
2022-12-18T11:02:58.129Z,49.60
2022-12-18T11:05:37.664Z,58.30
2022-12-18T11:08:05.089Z,51.03
2022-12-18T11:10:40.082Z,55.58
2022-12-18T11:13:27.335Z,53.25
2022-12-18T11:15:54.990Z,58.30
2022-12-18T11:18:29.867Z,55.90
2022-12-18T11:21:13.561Z,58.72
2022-12-18T11:23:52.697Z,57.75
2022-12-18T11:26:20.990Z,52.17
2022-12-18T11:28:53.188Z,50.95
2022-12-18T11:31:22.141Z,50.97
2022-12-18T11:34:29.202Z,53.80
2022-12-18T11:37:02.036Z,59.47
2022-12-18T11:39:37.408Z,61.53
2022-12-18T11:42:47.041Z,63.17
2022-12-18T11:45:14.189Z,56.13
2022-12-18T11:48:04.976Z,61.38
2022-12-18T11:50:47.350Z,66.63
2022-12-18T11:53:14.779Z,65.37
2022-12-18T11:55:57.284Z,62.92
2022-12-18T11:58:50.996Z,68.18
2022-12-18T12:01:45.679Z,64.20
2022-12-18T12:05:19.325Z,62.40
2022-12-18T12:08:12.105Z,63.65
2022-12-18T12:11:10.077Z,68.75
2022-12-18T12:13:45.260Z,73.25
2022-12-18T12:16:19.062Z,70.47
2022-12-18T12:19:03.976Z,65.90
2022-12-18T12:22:09.764Z,61.17
2022-12-18T12:25:32.637Z,60.30
2022-12-18T12:28:30.690Z,65.15
2022-12-18T12:31:33.425Z,57.60
2022-12-18T12:34:21.110Z,62.25
2022-12-18T12:37:07.801Z,65.93
2022-12-18T12:39:43.289Z,58.13
2022-12-18T12:43:13.595Z,61.25
2022-12-18T12:46:06.090Z,64.07
2022-12-18T12:48:54.420Z,64.97
2022-12-18T12:51:27.141Z,66.20
2022-12-18T12:53:58.255Z,61.83
2022-12-18T12:56:40.833Z,60.63
2022-12-18T12:59:35.763Z,61.22
2022-12-18T13:02:43.182Z,62.42
2022-12-18T13:05:25.538Z,60.42
2022-12-18T13:08:02.131Z,59.15
2022-12-18T13:10:44.612Z,59.05
2022-12-18T13:13:17.299Z,62.42
2022-12-18T13:16:09.002Z,62.53
2022-12-18T13:18:37.197Z,62.47
2022-12-18T13:21:29.789Z,60.78
2022-12-18T13:24:14.957Z,61.95
2022-12-18T13:26:42.264Z,62.67
2022-12-18T13:29:09.845Z,57.97
2022-12-18T13:31:40.749Z,56.58
2022-12-18T13:34:26.849Z,65.78
2022-12-18T13:37:00.406Z,58.85
2022-12-18T13:39:36.042Z,59.17
2022-12-18T13:42:07.075Z,64.13
2022-12-18T13:44:42.340Z,63.75
2022-12-18T13:47:48.676Z,63.45
2022-12-18T13:50:32.501Z,65.10
2022-12-18T13:53:06.086Z,64.25
2022-12-18T13:55:33.541Z,65.45
2022-12-18T13:58:06.681Z,62.33
2022-12-18T14:00:34.867Z,62.33
2022-12-18T14:03:02.590Z,64.50
2022-12-18T14:05:33.903Z,62.88
2022-12-18T14:08:08.995Z,67.45
2022-12-18T14:10:49.510Z,67.78
2022-12-18T14:13:43.030Z,66.05
2022-12-18T14:16:17.597Z,69.95
2022-12-18T14:19:02.679Z,66.95
2022-12-18T14:21:40.062Z,76.78
2022-12-18T14:24:19.483Z,73.15
2022-12-18T14:26:50.585Z,73.15
2022-12-18T14:29:28.855Z,64.55
2022-12-18T14:32:16.596Z,61.40
2022-12-18T14:34:50.842Z,69.63
2022-12-18T14:37:23.418Z,67.82
2022-12-18T14:39:59.257Z,58.83
2022-12-18T14:42:30.392Z,55.38
2022-12-18T14:45:42.382Z,61.70
2022-12-18T14:48:22.888Z,54.80
2022-12-18T14:51:11.794Z,55.97
2022-12-18T14:53:59.011Z,53.05
2022-12-18T14:56:43.561Z,48.88
2022-12-18T14:59:24.735Z,46.20
2022-12-18T15:02:21.178Z,46.22
2022-12-18T15:05:00.100Z,53.05
2022-12-18T15:07:27.539Z,46.55
2022-12-18T15:10:09.857Z,47.90
2022-12-18T15:13:03.415Z,44.10
2022-12-18T15:15:40.503Z,47.00
2022-12-18T15:18:11.408Z,45.97
2022-12-18T15:20:56.079Z,42.25
2022-12-18T15:23:31.572Z,65.85
2022-12-18T15:26:15.377Z,50.58
2022-12-18T15:28:56.278Z,48.08
2022-12-18T15:31:29.075Z,47.45
2022-12-18T15:36:26.285Z,41.90
2022-12-18T15:39:04.601Z,47.50
2022-12-18T15:41:36.769Z,43.33
2022-12-18T15:44:22.346Z,48.47
2022-12-18T15:46:49.683Z,49.80
2022-12-18T15:49:16.896Z,43.90
2022-12-18T15:51:44.433Z,43.53
2022-12-18T15:54:17.078Z,44.58
2022-12-18T15:57:02.991Z,41.83
2022-12-18T15:59:30.186Z,43.50
2022-12-18T16:01:57.951Z,41.20
2022-12-18T16:04:26.257Z,41.15
2022-12-18T16:09:40.835Z,38.15
2022-12-18T16:12:17.802Z,36.47
2022-12-18T16:14:46.006Z,39.50
2022-12-18T16:17:15.149Z,37.85
2022-12-18T16:19:43.867Z,39.92
2022-12-18T16:22:24.854Z,44.95
2022-12-18T16:24:54.192Z,44.30
2022-12-18T16:27:23.197Z,41.47
2022-12-18T16:29:51.175Z,45.60
2022-12-18T16:32:22.091Z,37.97
2022-12-18T16:34:50.538Z,39.22
2022-12-18T16:37:18.056Z,35.58
2022-12-18T16:39:45.725Z,38.60
2022-12-18T16:42:21.048Z,38.35
2022-12-18T16:44:50.124Z,40.38
2022-12-18T16:47:17.909Z,36.42
2022-12-18T16:49:46.183Z,40.10
2022-12-18T16:52:14.236Z,42.83
2022-12-18T16:54:41.526Z,41.47
2022-12-18T16:57:14.068Z,37.40
2022-12-18T16:59:41.371Z,38.78
2022-12-18T17:02:23.956Z,45.28
2022-12-18T17:04:56.283Z,38.15
2022-12-18T17:07:25.490Z,37.00
2022-12-18T17:09:53.985Z,35.83
2022-12-18T17:12:21.619Z,34.28
2022-12-18T17:14:49.203Z,32.90
2022-12-18T17:17:21.472Z,34.45
2022-12-18T17:19:49.942Z,37.90
2022-12-18T17:22:17.316Z,33.85
2022-12-18T17:24:44.514Z,37.45
2022-12-18T17:27:11.676Z,38.22
2022-12-18T17:29:43.965Z,37.67
2022-12-18T17:32:13.940Z,43.35
2022-12-18T17:34:41.330Z,39.65
2022-12-18T17:37:08.996Z,39.50
2022-12-18T17:39:36.300Z,37.22
2022-12-18T17:42:03.933Z,32.33
2022-12-18T17:44:34.272Z,38.92
2022-12-18T17:47:01.789Z,39.30
2022-12-18T17:49:29.358Z,42.95
2022-12-18T17:51:56.537Z,41.08
2022-12-18T17:54:23.751Z,40.38
2022-12-18T17:56:51.007Z,36.92
2022-12-18T17:59:18.213Z,42.85
2022-12-18T18:01:45.894Z,37.42
2022-12-18T18:04:14.706Z,37.60
2022-12-18T18:06:42.066Z,44.20
2022-12-18T18:09:15.282Z,39.10
2022-12-18T18:12:04.411Z,42.00
2022-12-18T18:14:32.956Z,59.63
2022-12-18T18:17:04.217Z,42.10
2022-12-18T18:19:33.558Z,40.45
2022-12-18T18:22:01.629Z,38.95
2022-12-18T18:24:31.192Z,39.95
2022-12-18T18:27:01.380Z,40.58
2022-12-18T18:29:32.552Z,36.88
2022-12-18T18:31:59.858Z,34.78
2022-12-18T18:34:30.319Z,39.10
2022-12-18T18:36:57.599Z,38.13
2022-12-18T18:39:25.449Z,38.63
2022-12-18T18:41:53.174Z,41.33
2022-12-18T18:44:24.863Z,36.28
2022-12-18T18:46:55.719Z,37.08
2022-12-18T18:49:26.922Z,59.30
2022-12-18T18:51:55.791Z,40.28
2022-12-18T18:54:23.614Z,42.22
2022-12-18T18:59:38.298Z,39.63
2022-12-18T19:02:05.586Z,41.22
2022-12-18T19:04:34.086Z,42.40
2022-12-18T19:07:01.869Z,43.25
2022-12-18T19:09:29.412Z,46.63
2022-12-18T19:12:16.464Z,44.40
2022-12-18T19:14:43.857Z,47.20
2022-12-18T19:17:11.084Z,43.58
2022-12-18T19:19:39.277Z,41.85
2022-12-18T19:22:06.657Z,47.25
2022-12-18T19:24:33.960Z,45.08
2022-12-18T19:27:01.441Z,45.97
2022-12-18T19:29:28.666Z,45.53
2022-12-18T19:31:55.927Z,46.90
2022-12-18T19:34:23.188Z,46.97
2022-12-18T19:36:53.891Z,51.22
2022-12-18T19:39:25.666Z,50.30
2022-12-18T19:41:53.014Z,50.10
2022-12-18T19:44:21.592Z,46.25
2022-12-18T19:46:51.831Z,45.72
2022-12-18T19:49:21.968Z,48.08
2022-12-18T19:51:50.175Z,44.72
2022-12-18T19:54:18.072Z,43.15
2022-12-18T19:56:46.106Z,42.13
2022-12-18T19:59:14.482Z,39.33
2022-12-18T20:01:42.100Z,44.58
2022-12-18T20:04:09.572Z,43.35
2022-12-18T20:06:51.569Z,44.53
2022-12-18T20:09:19.884Z,53.85
2022-12-18T20:11:48.198Z,47.13
2022-12-18T20:14:22.338Z,44.00
2022-12-18T20:16:52.355Z,44.17
2022-12-18T20:19:20.745Z,54.33
2022-12-18T20:21:48.113Z,41.20
2022-12-18T20:24:15.317Z,41.58
2022-12-18T20:26:42.546Z,39.22
2022-12-18T20:29:09.789Z,45.58
2022-12-18T20:31:37.266Z,46.53
2022-12-18T20:34:06.107Z,44.78
2022-12-18T20:36:35.251Z,42.05
2022-12-18T20:39:06.531Z,60.90
2022-12-18T20:41:38.317Z,53.53
2022-12-18T20:44:23.004Z,41.65
2022-12-18T20:46:56.222Z,42.85
2022-12-18T20:49:26.608Z,37.72
2022-12-18T20:51:56.813Z,43.80
2022-12-18T20:54:27.242Z,44.60
2022-12-18T20:56:55.120Z,46.38
2022-12-18T20:59:23.243Z,45.38
2022-12-18T21:01:52.037Z,41.97
2022-12-18T21:04:19.601Z,42.85
2022-12-18T21:06:54.255Z,42.15
2022-12-18T21:09:33.724Z,46.80
2022-12-18T21:12:26.223Z,43.70
2022-12-18T21:14:53.757Z,44.45
2022-12-18T21:17:20.921Z,43.80
2022-12-18T21:19:48.128Z,48.20
2022-12-18T21:22:16.457Z,43.85
2022-12-18T21:24:43.893Z,46.28
2022-12-18T21:27:13.011Z,46.50
2022-12-18T21:29:45.803Z,46.22
2022-12-18T21:32:13.984Z,45.28
2022-12-18T21:34:46.238Z,42.13
2022-12-18T21:37:15.692Z,43.28
2022-12-18T21:39:42.953Z,52.95
2022-12-18T21:42:30.590Z,54.15
2022-12-18T21:44:57.912Z,49.53
2022-12-18T21:47:25.149Z,46.70
2022-12-18T21:49:53.179Z,46.15
2022-12-18T21:52:29.823Z,48.90
2022-12-18T21:55:08.442Z,45.38
2022-12-18T21:57:39.564Z,47.92
2022-12-18T22:00:18.727Z,47.58
2022-12-18T22:03:00.490Z,46.40
2022-12-18T22:05:36.213Z,45.33
2022-12-18T22:08:04.413Z,48.28
2022-12-18T22:10:32.098Z,45.15
2022-12-18T22:12:59.307Z,47.05
2022-12-18T22:15:26.542Z,48.78
2022-12-18T22:17:59.544Z,45.40
2022-12-18T22:20:29.962Z,47.90
2022-12-18T22:22:58.659Z,49.17
2022-12-18T22:25:27.250Z,52.08
2022-12-18T22:28:13.052Z,48.47
2022-12-18T22:30:40.347Z,46.97
2022-12-18T22:33:07.569Z,51.15
2022-12-18T22:35:34.992Z,50.45
2022-12-18T22:38:03.279Z,47.80
2022-12-18T22:40:30.642Z,47.15
2022-12-18T22:42:58.118Z,47.15
2022-12-18T22:45:26.798Z,44.83
2022-12-18T22:47:54.153Z,45.88
2022-12-18T22:50:21.623Z,44.28
2022-12-18T22:52:48.862Z,47.00
2022-12-18T22:55:16.037Z,44.60
2022-12-18T22:57:48.571Z,44.10
2022-12-18T23:02:48.074Z,42.75
2022-12-18T23:05:15.564Z,41.72
2022-12-18T23:07:42.714Z,42.47
2022-12-18T23:10:10.109Z,46.22
2022-12-18T23:12:37.595Z,44.97
2022-12-18T23:15:05.988Z,43.90
2022-12-18T23:17:33.152Z,40.90
2022-12-18T23:20:00.306Z,39.10
2022-12-18T23:22:30.409Z,39.83
2022-12-18T23:24:57.660Z,43.13
2022-12-18T23:27:24.848Z,46.08
2022-12-18T23:29:51.993Z,40.38
2022-12-18T23:32:20.392Z,40.67
2022-12-18T23:34:47.600Z,41.97
2022-12-18T23:37:35.281Z,42.67
2022-12-18T23:40:02.025Z,40.45
2022-12-18T23:42:29.220Z,38.95
2022-12-18T23:44:56.399Z,42.63
2022-12-18T23:47:24.779Z,37.53
2022-12-18T23:49:51.914Z,41.95
2022-12-18T23:52:19.457Z,39.72
2022-12-18T23:54:46.712Z,43.97
2022-12-18T23:57:13.962Z,39.22
2022-12-18T23:59:41.278Z,44.65
